Time;durP1;ratioP1;P1;durP2;ratioP2;P2;SDS_P1;SDS_P2;PMS_P1;PMS_P2;Temp;Humidity;BMP_temperature;BMP_pressure;BME280_temperature;BME280_humidity;BME280_pressure;Samples;Min_cycle;Max_cycle;Signal;HPM_P1;HPM_P2
2023/09/06 00:02:16;;;;;;;9.50;4.80;;;;;;;12.51;82.71;101349.60;108959;277;39594;-70
2023/09/06 00:04:51;;;;;;;6.20;4.20;;;;;;;12.52;82.93;101349.41;108857;277;38536;-70
2023/09/06 00:07:25;;;;;;;7.90;4.20;;;;;;;12.52;82.98;101347.48;108944;277;38163;-70
2023/09/06 00:10:00;;;;;;;6.90;4.30;;;;;;;12.48;82.91;101347.91;108901;277;38456;-70
2023/09/06 00:12:33;;;;;;;6.50;4.30;;;;;;;12.46;82.88;101348.88;108946;277;39682;-72
2023/09/06 00:15:11;;;;;;;8.00;4.50;;;;;;;12.46;83.09;101347.98;108871;277;38169;-71
2023/09/06 00:17:45;;;;;;;8.60;4.50;;;;;;;12.44;82.86;101347.86;108918;277;38369;-71
2023/09/06 00:20:20;;;;;;;7.80;4.80;;;;;;;12.43;82.99;101344.95;108943;277;39767;-71
2023/09/06 00:23:01;;;;;;;6.40;4.50;;;;;;;12.41;83.05;101344.64;108924;277;38765;-72
2023/09/06 00:25:35;;;;;;;9.20;4.40;;;;;;;12.38;82.99;101345.77;108937;277;39599;-71
2023/09/06 00:28:09;;;;;;;5.80;4.10;;;;;;;12.40;83.14;101346.40;108883;277;38303;-71
2023/09/06 00:30:45;;;;;;;8.70;5.00;;;;;;;12.41;83.26;101346.73;108897;277;39622;-71
2023/09/06 00:33:19;;;;;;;7.10;4.70;;;;;;;12.41;83.31;101346.23;108918;277;38459;-71
2023/09/06 00:35:54;;;;;;;6.70;5.10;;;;;;;12.41;83.41;101344.13;108966;277;38245;-71
2023/09/06 00:38:28;;;;;;;7.10;4.80;;;;;;;12.39;83.51;101342.08;108909;277;39562;-71
2023/09/06 00:41:02;;;;;;;9.10;5.10;;;;;;;12.38;83.43;101341.23;108930;277;39067;-71
2023/09/06 00:43:36;;;;;;;6.50;4.60;;;;;;;12.35;83.49;101340.09;108870;277;38754;-71
2023/09/06 00:46:11;;;;;;;7.30;4.50;;;;;;;12.34;83.69;101339.95;108892;277;39473;-71
2023/09/06 00:48:45;;;;;;;10.30;5.50;;;;;;;12.32;83.44;101337.73;108900;277;39462;-71
2023/09/06 00:51:20;;;;;;;9.90;5.30;;;;;;;12.30;83.38;101337.61;108890;277;39328;-71
2023/09/06 00:53:54;;;;;;;9.40;5.40;;;;;;;12.26;83.10;101337.02;108928;277;39397;-71
2023/09/06 00:56:28;;;;;;;8.30;5.60;;;;;;;12.20;83.07;101337.58;108933;277;38166;-71
2023/09/06 00:59:02;;;;;;;6.90;4.90;;;;;;;12.14;83.11;101334.41;108891;277;38613;-72
2023/09/06 01:01:36;;;;;;;7.00;5.00;;;;;;;12.12;83.43;101333.24;108916;277;38606;-71
2023/09/06 01:04:10;;;;;;;7.70;5.30;;;;;;;12.12;83.52;101333.76;108941;277;39206;-70
2023/09/06 01:06:44;;;;;;;7.10;5.10;;;;;;;12.12;83.54;101336.40;108996;277;38151;-71
2023/09/06 01:09:18;;;;;;;8.40;5.30;;;;;;;12.10;83.54;101341.70;108890;277;39803;-70
2023/09/06 01:11:53;;;;;;;7.40;5.40;;;;;;;12.09;83.60;101345.23;108899;277;38823;-71
2023/09/06 01:14:26;;;;;;;6.00;5.00;;;;;;;12.07;83.55;101347.02;108803;277;175247;-71
2023/09/06 01:17:00;;;;;;;8.10;5.60;;;;;;;12.05;83.59;101344.48;108913;277;38463;-72
2023/09/06 01:19:34;;;;;;;10.50;5.80;;;;;;;12.03;83.75;101342.06;108951;277;39103;-72
2023/09/06 01:22:12;;;;;;;7.50;5.60;;;;;;;12.01;83.75;101342.15;108945;277;38717;-72
2023/09/06 01:24:45;;;;;;;8.00;5.30;;;;;;;11.94;83.42;101343.21;108866;277;38308;-72
2023/09/06 01:27:19;;;;;;;9.10;5.50;;;;;;;11.90;83.56;101343.31;108973;277;38315;-73
2023/09/06 01:29:53;;;;;;;7.60;4.90;;;;;;;11.88;83.71;101343.38;108889;277;38374;-73
2023/09/06 01:32:28;;;;;;;10.50;5.80;;;;;;;11.85;83.82;101342.58;108934;277;38855;-72
2023/09/06 01:35:02;;;;;;;7.00;5.00;;;;;;;11.80;83.87;101350.39;108896;277;38555;-72
2023/09/06 01:37:37;;;;;;;7.60;4.50;;;;;;;11.78;83.99;101359.17;108919;278;38274;-71
2023/09/06 01:40:17;;;;;;;7.90;4.70;;;;;;;11.75;83.94;101355.58;108946;278;38021;-71
2023/09/06 01:42:51;;;;;;;7.00;4.60;;;;;;;11.72;84.04;101350.96;108861;278;38373;-72
2023/09/06 01:45:25;;;;;;;7.50;4.40;;;;;;;11.73;84.30;101352.67;108981;278;38522;-72
2023/09/06 01:47:59;;;;;;;9.30;5.70;;;;;;;11.74;84.49;101350.38;108912;278;38511;-70
2023/09/06 01:50:33;;;;;;;8.30;5.00;;;;;;;11.76;84.74;101355.74;108926;278;39421;-72
2023/09/06 01:53:07;;;;;;;8.30;5.30;;;;;;;11.74;84.54;101354.03;108894;278;38678;-71
2023/09/06 01:55:41;;;;;;;6.80;4.70;;;;;;;11.69;84.24;101356.10;108929;278;39617;-72
2023/09/06 01:58:15;;;;;;;6.40;5.00;;;;;;;11.66;84.44;101355.31;108894;278;38471;-72
2023/09/06 02:00:50;;;;;;;8.70;5.30;;;;;;;11.62;84.41;101355.93;108943;278;38272;-72
2023/09/06 02:03:25;;;;;;;5.70;4.90;;;;;;;11.59;84.68;101359.66;108904;278;39326;-72
2023/09/06 02:06:03;;;;;;;10.50;5.20;;;;;;;11.58;84.66;101356.57;108925;278;38862;-71
2023/09/06 02:08:39;;;;;;;6.60;4.90;;;;;;;11.56;84.70;101356.63;108921;278;39632;-70
2023/09/06 02:11:13;;;;;;;5.90;4.70;;;;;;;11.52;84.83;101352.36;108911;278;38461;-70
2023/09/06 02:13:47;;;;;;;6.30;5.10;;;;;;;11.50;84.72;101351.36;108888;278;38476;-71
2023/09/06 02:16:23;;;;;;;7.70;5.10;;;;;;;11.45;84.56;101348.88;108938;278;38142;-72
2023/09/06 02:18:57;;;;;;;5.40;4.90;;;;;;;11.43;84.88;101345.45;108855;278;39366;-72
2023/09/06 02:21:31;;;;;;;5.80;4.70;;;;;;;11.41;85.16;101347.77;108900;278;38484;-72
2023/09/06 02:24:08;;;;;;;6.30;5.00;;;;;;;11.37;85.03;101348.91;108908;278;39517;-70
2023/09/06 02:26:42;;;;;;;5.90;4.60;;;;;;;11.36;85.19;101347.02;108945;278;38572;-71
2023/09/06 02:29:16;;;;;;;6.20;4.90;;;;;;;11.34;85.18;101344.08;108896;278;38798;-71
2023/09/06 02:31:50;;;;;;;6.50;4.60;;;;;;;11.34;85.43;101343.56;108928;278;38239;-72
2023/09/06 02:34:24;;;;;;;7.60;4.80;;;;;;;11.33;85.48;101346.20;108898;278;38348;-72
2023/09/06 02:36:58;;;;;;;9.90;4.70;;;;;;;11.33;85.66;101347.95;108875;278;38587;-72
2023/09/06 02:39:33;;;;;;;6.10;5.10;;;;;;;11.31;85.53;101348.18;108908;278;38987;-70
2023/09/06 02:42:07;;;;;;;10.90;5.10;;;;;;;11.28;85.53;101343.72;108937;278;38164;-70
2023/09/06 02:44:42;;;;;;;7.40;4.90;;;;;;;11.26;85.72;101346.92;108913;278;38427;-70
2023/09/06 02:47:17;;;;;;;8.40;5.00;;;;;;;11.24;85.73;101350.45;108930;278;39012;-72
2023/09/06 02:49:55;;;;;;;8.40;5.00;;;;;;;11.26;86.06;101348.67;108883;278;39332;-70
2023/09/06 02:52:35;;;;;;;8.80;5.80;;;;;;;11.27;86.09;101351.25;108947;278;38857;-71
2023/09/06 02:55:13;;;;;;;7.40;5.00;;;;;;;11.26;86.10;101352.33;108878;278;38507;-72
2023/09/06 02:57:49;;;;;;;8.60;4.80;;;;;;;11.23;85.95;101350.81;108939;278;38607;-70
2023/09/06 03:00:25;;;;;;;9.60;4.80;;;;;;;11.21;85.89;101355.94;108932;278;39537;-71
2023/09/06 03:03:05;;;;;;;7.40;4.50;;;;;;;11.19;85.92;101357.39;108887;278;39889;-71
2023/09/06 03:05:41;;;;;;;5.90;4.40;;;;;;;11.17;85.96;101360.06;108931;278;38598;-70
2023/09/06 03:08:16;;;;;;;11.70;5.20;;;;;;;11.15;85.97;101361.16;108908;278;38366;-71
2023/09/06 03:10:52;;;;;;;6.70;5.20;;;;;;;11.13;86.12;101360.69;108821;278;175266;-71
2023/09/06 03:13:26;;;;;;;5.60;4.50;;;;;;;11.12;86.14;101365.23;108911;278;38180;-71
2023/09/06 03:16:00;;;;;;;7.10;4.50;;;;;;;11.13;86.29;101368.19;108808;278;175321;-71
2023/09/06 03:18:34;;;;;;;6.70;4.60;;;;;;;11.13;86.48;101368.02;108910;278;39693;-72
2023/09/06 03:21:08;;;;;;;5.70;4.40;;;;;;;11.12;86.56;101371.19;108937;278;38181;-71
2023/09/06 03:23:44;;;;;;;9.00;5.30;;;;;;;11.12;86.59;101372.92;108884;278;38170;-70
2023/09/06 03:26:18;;;;;;;6.10;4.60;;;;;;;11.12;86.76;101376.77;108933;278;39377;-70
2023/09/06 03:28:55;;;;;;;6.10;4.00;;;;;;;11.12;86.78;101377.64;108918;278;40067;-70
2023/09/06 03:31:29;;;;;;;5.20;4.60;;;;;;;11.11;86.60;101376.09;108973;278;38339;-72
2023/09/06 03:34:04;;;;;;;5.10;4.60;;;;;;;11.08;86.51;101374.95;108939;278;38186;-70
2023/09/06 03:36:40;;;;;;;8.20;5.30;;;;;;;11.04;86.36;101372.23;108899;278;38341;-72
2023/09/06 03:39:14;;;;;;;6.30;4.80;;;;;;;10.99;86.50;101370.95;108903;278;38666;-71
2023/09/06 03:41:48;;;;;;;5.20;4.30;;;;;;;10.95;86.37;101370.72;108943;278;38437;-70
2023/09/06 03:44:24;;;;;;;7.10;5.20;;;;;;;10.91;86.37;101368.21;108853;278;38762;-72
2023/09/06 03:46:58;;;;;;;8.30;5.00;;;;;;;10.87;86.60;101367.95;108923;278;38315;-70
2023/09/06 03:49:35;;;;;;;5.50;5.00;;;;;;;10.85;86.67;101366.58;108892;278;39614;-70
2023/09/06 03:52:10;;;;;;;10.50;5.10;;;;;;;10.83;86.75;101368.20;108907;278;38406;-71
2023/09/06 03:54:44;;;;;;;5.80;5.10;;;;;;;10.84;86.88;101364.51;108900;278;38546;-72
2023/09/06 03:57:18;;;;;;;8.80;5.00;;;;;;;10.88;87.15;101364.96;108906;278;40225;-70
2023/09/06 03:59:52;;;;;;;6.30;5.00;;;;;;;10.92;87.37;101366.60;108893;278;38173;-70
2023/09/06 04:02:27;;;;;;;7.40;5.10;;;;;;;10.93;87.22;101367.45;108265;278;899888;-71
2023/09/06 04:05:01;;;;;;;7.10;5.00;;;;;;;10.92;87.11;101372.54;108882;278;38152;-71
2023/09/06 04:07:38;;;;;;;7.20;5.00;;;;;;;10.91;87.32;101374.14;108959;278;39628;-70
2023/09/06 04:10:16;;;;;;;6.40;5.30;;;;;;;10.91;87.42;101372.55;108884;278;39907;-71
2023/09/06 04:12:53;;;;;;;8.10;5.50;;;;;;;10.94;87.53;101379.65;108903;278;39146;-70
2023/09/06 04:15:28;;;;;;;7.00;5.80;;;;;;;10.96;87.80;101375.24;108920;278;38781;-71
2023/09/06 04:18:02;;;;;;;7.30;5.40;;;;;;;10.96;87.88;101371.03;108904;278;38241;-71
2023/09/06 04:20:39;;;;;;;6.60;4.90;;;;;;;10.97;87.98;101370.66;108933;278;39332;-72
2023/09/06 04:23:14;;;;;;;6.10;5.50;;;;;;;10.99;88.10;101368.35;108908;278;38156;-72
2023/09/06 04:25:48;;;;;;;7.00;5.50;;;;;;;10.99;88.18;101365.20;108907;278;38198;-70
2023/09/06 04:28:22;;;;;;;8.10;5.20;;;;;;;11.01;88.18;101367.27;108895;278;39897;-70
2023/09/06 04:30:56;;;;;;;8.50;5.50;;;;;;;11.01;88.09;101364.13;108301;278;913424;-70
2023/09/06 04:33:30;;;;;;;7.30;5.10;;;;;;;11.04;88.42;101367.90;108207;278;903386;-70
2023/09/06 04:36:06;;;;;;;8.60;6.00;;;;;;;11.07;88.70;101369.88;108979;278;39095;-70
2023/09/06 04:38:40;;;;;;;9.70;5.50;;;;;;;11.11;88.74;101369.81;108895;278;39822;-70
2023/09/06 04:41:14;;;;;;;8.20;5.40;;;;;;;11.17;88.93;101371.58;108925;278;38186;-70
2023/09/06 04:43:49;;;;;;;7.00;5.10;;;;;;;11.27;89.28;101372.91;108877;278;38453;-70
2023/09/06 04:46:24;;;;;;;6.20;5.10;;;;;;;11.34;89.29;101377.45;108943;278;39618;-71
2023/09/06 04:48:58;;;;;;;6.50;5.00;;;;;;;11.41;89.45;101374.66;108876;278;38925;-70
2023/09/06 04:51:32;;;;;;;6.10;5.30;;;;;;;11.50;89.67;101374.77;108903;278;38799;-70
2023/09/06 04:54:09;;;;;;;6.00;4.70;;;;;;;11.60;89.97;101374.69;108930;278;38338;-70
2023/09/06 04:56:43;;;;;;;5.20;4.70;;;;;;;11.73;90.17;101379.42;108911;278;38356;-70
2023/09/06 04:59:17;;;;;;;7.00;5.00;;;;;;;11.85;90.26;101384.02;108913;278;38472;-70
2023/09/06 05:01:51;;;;;;;6.20;4.70;;;;;;;12.01;90.37;101380.95;108899;278;39321;-70
2023/09/06 05:04:25;;;;;;;6.80;5.40;;;;;;;12.14;90.69;101380.95;108904;278;38147;-70
2023/09/06 05:06:59;;;;;;;10.70;6.00;;;;;;;12.25;90.75;101382.05;108864;278;38622;-71
2023/09/06 05:09:34;;;;;;;6.60;5.30;;;;;;;12.36;90.68;101382.05;108891;278;38441;-72
2023/09/06 05:12:09;;;;;;;6.80;5.50;;;;;;;12.47;90.57;101383.15;108879;278;39109;-73
2023/09/06 05:14:44;;;;;;;6.50;5.10;;;;;;;12.56;90.50;101384.09;108909;278;40563;-72
2023/09/06 05:17:17;;;;;;;7.70;6.40;;;;;;;12.67;90.82;101383.94;108908;278;40243;-70
2023/09/06 05:19:54;;;;;;;7.30;5.90;;;;;;;12.79;91.02;101386.89;108884;278;38929;-71
2023/09/06 05:22:29;;;;;;;7.10;5.40;;;;;;;12.91;90.78;101382.48;108909;278;38159;-71
2023/09/06 05:25:04;;;;;;;7.20;5.70;;;;;;;13.07;91.35;101383.55;108905;278;38644;-71
2023/09/06 05:27:40;;;;;;;11.80;10.30;;;;;;;13.36;93.56;101382.98;108904;278;39343;-72
2023/09/06 05:30:16;;;;;;;9.20;7.00;;;;;;;13.85;99.32;101378.31;108890;278;38273;-72
2023/09/06 05:32:50;;;;;;;7.20;6.20;;;;;;;15.07;100.00;101381.75;108932;278;39958;-72
2023/09/06 05:35:24;;;;;;;8.00;6.40;;;;;;;16.56;100.00;101384.45;108903;278;40148;-73
2023/09/06 05:37:58;;;;;;;6.50;5.90;;;;;;;17.98;97.59;101378.45;108953;278;38193;-72
2023/09/06 05:40:33;;;;;;;8.20;5.60;;;;;;;19.25;88.82;101373.39;108946;278;38928;-72
2023/09/06 05:43:07;;;;;;;7.70;5.70;;;;;;;20.07;80.06;101378.20;108908;278;39084;-73
2023/09/06 05:45:41;;;;;;;7.30;5.70;;;;;;;20.29;75.01;101377.42;108920;278;38204;-72
2023/09/06 05:48:15;;;;;;;8.90;6.10;;;;;;;20.44;72.30;101382.86;108942;278;39422;-73
2023/09/06 05:50:50;;;;;;;9.00;6.20;;;;;;;20.44;69.34;101383.58;108921;278;39925;-72
2023/09/06 05:53:24;;;;;;;8.30;6.50;;;;;;;20.10;68.23;101383.91;108863;278;39065;-72
2023/09/06 05:55:58;;;;;;;6.00;5.40;;;;;;;19.80;68.38;101384.50;108922;278;38569;-73
2023/09/06 05:58:37;;;;;;;9.30;6.10;;;;;;;19.75;69.02;101382.99;108864;278;38296;-71
2023/09/06 06:01:12;;;;;;;8.00;6.70;;;;;;;20.30;72.13;101382.46;108921;278;39612;-71
2023/09/06 06:03:46;;;;;;;11.00;6.70;;;;;;;21.46;72.16;101385.42;108886;278;38504;-72
2023/09/06 06:06:21;;;;;;;8.80;6.50;;;;;;;22.79;67.98;101383.71;108784;278;174649;-72
2023/09/06 06:08:57;;;;;;;10.40;5.90;;;;;;;23.93;62.93;101381.74;108940;278;39668;-72
2023/09/06 06:11:33;;;;;;;11.30;6.50;;;;;;;24.75;58.16;101388.54;108984;278;38441;-72
2023/09/06 06:14:07;;;;;;;6.90;5.90;;;;;;;25.03;54.98;101387.69;108965;278;39895;-72
2023/09/06 06:16:42;;;;;;;8.00;5.60;;;;;;;25.01;53.61;101394.83;108924;278;38632;-71
2023/09/06 06:19:15;;;;;;;9.00;5.60;;;;;;;24.76;52.41;101396.16;108905;278;39367;-72
2023/09/06 06:21:50;;;;;;;8.10;6.20;;;;;;;24.58;52.44;101391.41;108944;278;38343;-73
2023/09/06 06:24:24;;;;;;;8.70;6.20;;;;;;;24.26;51.73;101388.75;108928;278;39367;-73
2023/09/06 06:26:58;;;;;;;10.10;6.10;;;;;;;23.86;52.38;101390.33;108963;278;38130;-73
2023/09/06 06:29:32;;;;;;;8.80;5.90;;;;;;;23.42;52.54;101389.38;108900;278;38252;-73
2023/09/06 06:32:06;;;;;;;7.40;6.00;;;;;;;23.04;53.21;101391.91;108885;278;39392;-72
2023/09/06 06:34:43;;;;;;;9.30;6.80;;;;;;;22.70;53.97;101396.48;108929;278;38383;-72
2023/09/06 06:37:18;;;;;;;13.20;7.30;;;;;;;22.48;54.61;101395.39;108896;278;38431;-72
2023/09/06 06:39:51;;;;;;;11.20;7.40;;;;;;;22.27;54.94;101399.27;108931;278;38135;-72
2023/09/06 06:42:28;;;;;;;9.80;7.30;;;;;;;22.04;55.07;101396.17;108944;278;39330;-72
2023/09/06 06:45:04;;;;;;;10.40;7.60;;;;;;;21.84;55.54;101403.29;108892;278;38140;-72
2023/09/06 06:47:39;;;;;;;12.90;7.80;;;;;;;21.66;56.56;101403.98;108941;278;38159;-73
2023/09/06 06:50:13;;;;;;;11.80;7.50;;;;;;;21.54;57.02;101410.11;108907;278;38341;-73
2023/09/06 06:52:48;;;;;;;11.70;7.40;;;;;;;21.38;57.09;101407.86;108931;279;38143;-71
2023/09/06 06:55:22;;;;;;;9.40;7.10;;;;;;;21.26;57.59;101410.20;108888;278;38483;-73
2023/09/06 06:57:56;;;;;;;10.30;6.30;;;;;;;21.24;57.84;101409.45;108423;270;618080;-72
2023/09/06 07:00:31;;;;;;;9.60;6.20;;;;;;;21.26;58.09;101408.59;108973;278;39131;-71
2023/09/06 07:03:09;;;;;;;9.40;5.90;;;;;;;21.31;58.47;101407.89;108945;278;38152;-70
2023/09/06 07:05:44;;;;;;;8.30;6.30;;;;;;;21.36;58.27;101411.67;108962;278;39486;-71
2023/09/06 07:08:18;;;;;;;10.90;6.50;;;;;;;21.44;58.26;101412.60;108986;278;38479;-70
2023/09/06 07:10:52;;;;;;;10.40;6.60;;;;;;;21.50;58.41;101409.36;108965;278;38134;-71
2023/09/06 07:13:27;;;;;;;10.20;6.40;;;;;;;21.60;58.30;101414.86;108971;278;38746;-71
2023/09/06 07:16:03;;;;;;;15.70;6.50;;;;;;;21.70;58.19;101412.44;108921;278;39111;-69
2023/09/06 07:18:37;;;;;;;8.90;5.90;;;;;;;21.80;58.12;101414.36;108913;278;38278;-70
2023/09/06 07:21:11;;;;;;;10.50;5.90;;;;;;;21.88;58.27;101411.70;108915;278;38486;-73
2023/09/06 07:23:45;;;;;;;6.90;5.50;;;;;;;21.90;57.77;101411.55;108899;278;38173;-71
2023/09/06 07:26:19;;;;;;;6.60;5.20;;;;;;;21.88;57.88;101411.84;108891;278;40168;-71
2023/09/06 07:28:53;;;;;;;9.20;5.20;;;;;;;21.86;58.35;101417.31;108933;278;39306;-71
2023/09/06 07:31:27;;;;;;;10.30;4.80;;;;;;;21.88;58.64;101411.89;108928;278;38194;-71
2023/09/06 07:34:06;;;;;;;8.70;5.60;;;;;;;21.88;58.41;101418.05;108854;278;38338;-73
2023/09/06 07:36:40;;;;;;;;;;;;;;;21.89;58.36;101418.05;108952;278;38167;-72
2023/09/06 07:39:18;;;;;;;8.60;5.00;;;;;;;21.89;58.13;101423.21;108902;278;38610;-71
2023/09/06 07:41:56;;;;;;;6.30;4.70;;;;;;;21.94;58.50;101421.61;108952;278;38474;-71
2023/09/06 07:44:32;;;;;;;6.10;4.50;;;;;;;22.03;58.59;101422.56;108945;278;39382;-72
2023/09/06 07:47:07;;;;;;;8.90;5.30;;;;;;;22.15;58.61;101422.30;108937;278;38132;-72
2023/09/06 07:49:42;;;;;;;8.20;4.50;;;;;;;22.28;58.27;101422.95;108907;278;38927;-72
2023/09/06 07:52:17;;;;;;;8.00;5.30;;;;;;;22.42;58.11;101421.66;108923;278;39048;-71
2023/09/06 07:54:53;;;;;;;5.20;4.50;;;;;;;22.57;57.44;101424.84;108774;278;171924;-74
2023/09/06 07:57:30;;;;;;;5.40;4.00;;;;;;;22.69;57.35;101422.35;108923;278;39482;-72
2023/09/06 08:00:06;;;;;;;8.30;4.90;;;;;;;22.83;56.76;101424.02;108954;278;38345;-72
2023/09/06 08:02:42;;;;;;;6.80;4.30;;;;;;;23.04;57.41;101426.94;108918;278;38167;-73
2023/09/06 08:05:17;;;;;;;5.50;4.30;;;;;;;23.39;57.92;101421.67;108827;278;174631;-73
2023/09/06 08:07:53;;;;;;;5.70;4.10;;;;;;;23.81;58.15;101422.21;108904;278;39200;-73
2023/09/06 08:10:28;;;;;;;6.70;4.40;;;;;;;24.37;57.00;101419.46;108951;278;38209;-72
2023/09/06 08:13:06;;;;;;;6.90;4.00;;;;;;;25.23;54.45;101420.33;108879;278;39880;-73
2023/09/06 08:15:42;;;;;;;5.60;4.20;;;;;;;26.24;52.61;101416.02;108972;278;38516;-74
2023/09/06 08:18:20;;;;;;;6.00;3.70;;;;;;;27.33;50.03;101414.34;108920;278;39372;-74
2023/09/06 08:20:57;;;;;;;5.60;3.60;;;;;;;28.43;47.00;101409.77;108971;278;39610;-75
2023/09/06 08:23:35;;;;;;;6.70;3.50;;;;;;;29.40;44.54;101416.91;108934;278;38493;-75
2023/09/06 08:26:11;;;;;;;4.10;3.40;;;;;;;30.20;42.02;101414.69;108929;278;38459;-75
2023/09/06 08:28:47;;;;;;;5.80;3.60;;;;;;;31.02;40.48;101415.45;108800;278;174112;-76
2023/09/06 08:31:22;;;;;;;4.00;3.50;;;;;;;31.61;38.95;101417.35;108947;278;38329;-76
2023/09/06 08:33:57;;;;;;;4.30;3.70;;;;;;;32.21;37.26;101414.72;108905;278;38259;-76
2023/09/06 08:36:32;;;;;;;4.60;3.60;;;;;;;32.54;35.94;101420.15;108969;278;38101;-76
2023/09/06 08:39:07;;;;;;;4.10;3.30;;;;;;;32.81;35.57;101421.90;108892;278;38439;-73
2023/09/06 08:41:42;;;;;;;3.90;3.40;;;;;;;32.97;35.12;101422.59;108954;278;38353;-75
2023/09/06 08:44:20;;;;;;;5.50;3.30;;;;;;;33.22;33.52;101427.27;108872;278;39284;-73
2023/09/06 08:46:58;;;;;;;5.00;3.20;;;;;;;33.46;32.92;101427.02;108895;278;38625;-74
2023/09/06 08:49:33;;;;;;;3.80;3.30;;;;;;;33.78;32.12;101421.83;108928;278;38304;-75
2023/09/06 08:52:09;;;;;;;3.90;3.50;;;;;;;34.16;32.20;101422.20;108919;278;38424;-75
2023/09/06 08:54:45;;;;;;;5.00;3.70;;;;;;;34.45;31.43;101415.70;108857;278;38454;-74
2023/09/06 08:57:19;;;;;;;5.30;3.90;;;;;;;34.73;30.74;101413.90;108994;278;38488;-75
2023/09/06 08:59:53;;;;;;;4.20;3.40;;;;;;;35.00;31.18;101416.40;108911;278;38271;-75
2023/09/06 09:02:27;;;;;;;4.00;3.60;;;;;;;35.26;29.84;101416.73;108930;278;38941;-75
2023/09/06 09:05:03;;;;;;;4.50;3.90;;;;;;;35.31;29.91;101418.38;108872;278;39437;-75
2023/09/06 09:07:38;;;;;;;4.10;3.70;;;;;;;35.02;28.86;101414.77;108798;278;173545;-75
2023/09/06 09:10:15;;;;;;;5.30;3.60;;;;;;;34.82;29.85;101414.04;108950;278;38890;-75
2023/09/06 09:12:49;;;;;;;4.20;3.40;;;;;;;34.66;30.00;101413.77;108900;278;38496;-75
2023/09/06 09:15:25;;;;;;;4.00;3.50;;;;;;;34.49;29.81;101414.61;108922;278;39363;-75
2023/09/06 09:17:59;;;;;;;8.50;3.80;;;;;;;34.44;30.43;101413.69;108892;278;38599;-74
2023/09/06 09:20:35;;;;;;;6.40;3.50;;;;;;;34.19;29.48;101417.31;108924;278;38176;-75
2023/09/06 09:23:14;;;;;;;5.70;3.80;;;;;;;34.15;29.81;101419.91;108884;278;38984;-75
2023/09/06 09:25:54;;;;;;;5.10;3.60;;;;;;;34.14;28.70;101417.89;108837;278;171325;-75
2023/09/06 09:28:29;;;;;;;4.00;3.60;;;;;;;33.99;28.90;101420.11;108861;278;38527;-75
2023/09/06 09:31:05;;;;;;;4.20;3.50;;;;;;;34.06;29.13;101420.11;108890;278;38312;-75
2023/09/06 09:33:39;;;;;;;4.50;3.70;;;;;;;34.18;29.87;101420.23;108968;278;38804;-75
2023/09/06 09:36:16;;;;;;;6.10;3.70;;;;;;;34.41;30.72;101415.66;108923;278;38476;-75
2023/09/06 09:38:53;;;;;;;4.40;3.50;;;;;;;34.60;29.64;101420.55;108938;278;38186;-75
2023/09/06 09:41:27;;;;;;;5.40;3.70;;;;;;;34.46;29.67;101418.08;108846;278;38388;-75
2023/09/06 09:44:19;;;;;;;4.90;3.70;;;;;;;34.23;30.00;101418.96;108874;278;38615;-75
2023/09/06 09:46:54;;;;;;;5.30;3.30;;;;;;;33.89;30.14;101425.27;108912;278;40101;-75
2023/09/06 09:49:27;;;;;;;3.90;3.30;;;;;;;33.43;29.98;101425.20;108895;278;39207;-75
2023/09/06 09:52:01;;;;;;;7.10;3.70;;;;;;;32.98;30.67;101426.24;108857;278;38475;-75
2023/09/06 09:54:36;;;;;;;7.30;3.90;;;;;;;32.55;31.16;101421.70;108885;278;39761;-74
2023/09/06 09:57:11;;;;;;;6.60;3.60;;;;;;;32.17;31.57;101422.77;108838;278;40276;-74
2023/09/06 09:59:45;;;;;;;5.00;3.40;;;;;;;31.72;31.52;101420.43;108906;278;38240;-74
2023/09/06 10:02:20;;;;;;;4.50;3.50;;;;;;;31.33;32.20;101421.08;108922;278;39522;-74
2023/09/06 10:04:53;;;;;;;3.60;3.20;;;;;;;30.97;33.10;101423.92;108943;278;38267;-75
2023/09/06 10:07:28;;;;;;;5.90;3.60;;;;;;;30.73;32.83;101421.13;108904;278;38360;-74
2023/09/06 10:10:02;;;;;;;4.70;3.40;;;;;;;30.43;32.51;101422.54;108944;278;38932;-76
2023/09/06 10:12:36;;;;;;;5.80;3.80;;;;;;;29.91;32.36;101420.70;108861;278;39561;-73
2023/09/06 10:15:14;;;;;;;5.10;3.90;;;;;;;29.49;34.48;101422.63;108931;278;39813;-74
2023/09/06 10:17:50;;;;;;;3.80;3.00;;;;;;;29.39;35.43;101417.44;108868;278;38258;-74
2023/09/06 10:20:24;;;;;;;4.80;3.10;;;;;;;29.30;35.84;101422.09;108934;278;38396;-74
2023/09/06 10:23:00;;;;;;;4.10;3.40;;;;;;;29.23;35.75;101424.52;108892;278;39995;-74
2023/09/06 10:25:34;;;;;;;5.10;3.50;;;;;;;29.17;35.30;101427.18;108940;278;38414;-74
2023/09/06 10:28:09;;;;;;;4.90;3.10;;;;;;;28.96;34.99;101419.94;108907;278;38299;-74
2023/09/06 10:30:45;;;;;;;7.00;3.90;;;;;;;28.81;35.62;101418.66;108913;278;38476;-74
2023/09/06 10:33:58;;;;;;;5.40;3.80;;;;;;;28.67;34.95;101414.84;108973;278;38757;-74
2023/09/06 10:36:32;;;;;;;6.40;3.50;;;;;;;28.53;35.92;101414.98;108873;278;40170;-74
2023/09/06 10:39:21;;;;;;;4.70;2.90;;;;;;;28.46;35.75;101415.68;108910;278;39431;-74
2023/09/06 10:42:21;;;;;;;6.70;3.30;;;;;;;28.29;35.08;101415.30;108980;278;38598;-74
2023/09/06 10:45:17;;;;;;;5.40;3.20;;;;;;;28.08;34.64;101415.36;108922;278;38225;-74
2023/09/06 10:47:51;;;;;;;6.10;3.00;;;;;;;28.03;36.36;101413.52;108917;278;39364;-74
2023/09/06 10:50:25;;;;;;;3.70;3.10;;;;;;;28.07;37.24;101412.39;108931;278;38154;-74
2023/09/06 10:53:03;;;;;;;3.60;3.20;;;;;;;28.09;37.09;101416.48;108790;278;174474;-74
2023/09/06 10:55:47;;;;;;;3.50;2.90;;;;;;;28.05;36.84;101414.27;108840;278;40133;-74
2023/09/06 10:58:21;;;;;;;3.90;2.60;;;;;;;28.02;37.36;101416.08;108917;278;39264;-74
2023/09/06 11:01:17;;;;;;;5.30;3.30;;;;;;;27.99;36.94;101411.94;108912;278;38163;-74
2023/09/06 11:03:54;;;;;;;4.00;2.90;;;;;;;27.88;37.29;101412.98;108917;278;39348;-75
2023/09/06 11:06:28;;;;;;;4.20;3.10;;;;;;;27.83;38.01;101407.14;108876;278;39647;-72
2023/09/06 11:09:10;;;;;;;4.90;3.10;;;;;;;27.78;37.41;101408.90;108901;278;38606;-73
2023/09/06 11:11:44;;;;;;;5.60;3.20;;;;;;;27.70;38.50;101403.66;108848;278;174474;-72
2023/09/06 11:14:19;;;;;;;3.30;2.80;;;;;;;27.72;38.40;101404.63;108887;278;38590;-72
2023/09/06 11:16:53;;;;;;;4.70;3.30;;;;;;;27.73;38.33;101398.06;108950;278;39383;-72
2023/09/06 11:19:34;;;;;;;4.00;2.90;;;;;;;27.71;38.17;101396.81;108880;278;38149;-72
2023/09/06 11:22:11;;;;;;;8.60;3.20;;;;;;;27.65;38.16;101392.89;108964;278;40442;-73
2023/09/06 11:24:46;;;;;;;3.50;3.20;;;;;;;27.58;38.47;101392.13;108930;278;38240;-73
2023/09/06 11:27:29;;;;;;;4.20;3.10;;;;;;;27.56;38.63;101392.14;108947;278;38222;-73
2023/09/06 11:30:11;;;;;;;5.30;3.20;;;;;;;27.48;38.51;101390.17;108901;278;38307;-73
2023/09/06 11:32:44;;;;;;;6.10;3.60;;;;;;;27.38;38.44;101386.48;108967;278;39348;-75
2023/09/06 11:35:22;;;;;;;3.80;3.30;;;;;;;27.24;38.20;101385.02;108877;278;38170;-74
2023/09/06 11:37:56;;;;;;;4.70;3.30;;;;;;;27.18;38.94;101383.52;108923;278;39346;-75
2023/09/06 11:40:32;;;;;;;4.20;3.00;;;;;;;27.16;39.39;101383.49;108921;278;38401;-74
2023/09/06 11:43:10;;;;;;;6.10;3.30;;;;;;;27.17;39.44;101382.64;108919;278;39615;-72
2023/09/06 11:45:46;;;;;;;6.30;3.30;;;;;;;27.19;39.61;101381.96;109003;278;38129;-74
2023/09/06 11:48:25;;;;;;;4.80;3.30;;;;;;;27.18;39.55;101376.25;108921;278;38452;-73
2023/09/06 11:51:08;;;;;;;4.00;2.90;;;;;;;27.19;39.87;101377.66;108908;278;38450;-74
2023/09/06 11:53:53;;;;;;;4.10;3.00;;;;;;;27.19;39.81;101378.75;108964;278;38409;-74
2023/09/06 11:56:33;;;;;;;5.00;3.50;;;;;;;27.17;39.42;101377.83;108795;278;174433;-74
2023/09/06 11:59:12;;;;;;;3.70;3.30;;;;;;;27.16;39.42;101371.86;108849;278;39933;-73
2023/09/06 12:01:52;;;;;;;4.40;2.90;;;;;;;27.14;39.94;101370.76;108906;278;38304;-73
2023/09/06 12:04:28;;;;;;;3.60;3.00;;;;;;;27.13;40.13;101370.69;108900;278;38738;-73